sensor_id;sensor_type;location;lat;lon;timestamp;P1;durP1;ratioP1;P2;durP2;ratioP2
7997;SDS011;4044;49.814;7.828;2024-02-23T00:00:50;2.73;;;1.00;;
7997;SDS011;4044;49.814;7.828;2024-02-23T00:03:15;2.33;;;0.80;;
7997;SDS011;4044;49.814;7.828;2024-02-23T00:05:41;1.70;;;1.00;;
7997;SDS011;4044;49.814;7.828;2024-02-23T00:08:06;2.43;;;0.80;;
7997;SDS011;4044;49.814;7.828;2024-02-23T00:10:33;1.93;;;0.90;;
7997;SDS011;4044;49.814;7.828;2024-02-23T00:12:59;0.70;;;0.70;;
7997;SDS011;4044;49.814;7.828;2024-02-23T00:15:25;1.67;;;0.90;;
7997;SDS011;4044;49.814;7.828;2024-02-23T00:17:51;2.37;;;1.07;;
7997;SDS011;4044;49.814;7.828;2024-02-23T00:20:17;2.40;;;0.80;;
7997;SDS011;4044;49.814;7.828;2024-02-23T00:22:42;1.60;;;0.90;;
7997;SDS011;4044;49.814;7.828;2024-02-23T00:25:08;2.03;;;0.70;;
7997;SDS011;4044;49.814;7.828;2024-02-23T00:27:33;2.20;;;0.80;;
7997;SDS011;4044;49.814;7.828;2024-02-23T00:29:59;1.57;;;0.90;;
7997;SDS011;4044;49.814;7.828;2024-02-23T00:32:25;1.33;;;0.70;;
7997;SDS011;4044;49.814;7.828;2024-02-23T00:34:50;1.27;;;0.80;;
7997;SDS011;4044;49.814;7.828;2024-02-23T00:37:16;1.90;;;0.70;;
7997;SDS011;4044;49.814;7.828;2024-02-23T00:39:41;1.87;;;1.10;;
7997;SDS011;4044;49.814;7.828;2024-02-23T00:42:07;1.23;;;0.87;;
7997;SDS011;4044;49.814;7.828;2024-02-23T00:44:32;2.77;;;1.17;;
7997;SDS011;4044;49.814;7.828;2024-02-23T00:46:58;1.37;;;1.03;;
7997;SDS011;4044;49.814;7.828;2024-02-23T00:49:26;2.10;;;0.80;;
7997;SDS011;4044;49.814;7.828;2024-02-23T00:51:55;2.43;;;0.87;;
7997;SDS011;4044;49.814;7.828;2024-02-23T00:54:20;2.20;;;0.60;;
7997;SDS011;4044;49.814;7.828;2024-02-23T00:56:46;0.50;;;0.50;;
7997;SDS011;4044;49.814;7.828;2024-02-23T00:59:11;2.07;;;0.50;;
7997;SDS011;4044;49.814;7.828;2024-02-23T01:01:37;3.37;;;0.60;;
7997;SDS011;4044;49.814;7.828;2024-02-23T01:04:03;0.73;;;0.60;;
7997;SDS011;4044;49.814;7.828;2024-02-23T01:06:28;0.50;;;0.50;;
7997;SDS011;4044;49.814;7.828;2024-02-23T01:08:54;1.27;;;0.60;;
7997;SDS011;4044;49.814;7.828;2024-02-23T01:11:20;1.60;;;0.60;;
7997;SDS011;4044;49.814;7.828;2024-02-23T01:13:45;1.03;;;0.50;;
7997;SDS011;4044;49.814;7.828;2024-02-23T01:16:11;1.17;;;0.60;;
7997;SDS011;4044;49.814;7.828;2024-02-23T01:18:36;0.80;;;0.60;;
7997;SDS011;4044;49.814;7.828;2024-02-23T01:21:02;1.33;;;0.60;;
7997;SDS011;4044;49.814;7.828;2024-02-23T01:23:27;0.90;;;0.60;;
7997;SDS011;4044;49.814;7.828;2024-02-23T01:25:53;2.23;;;0.80;;
7997;SDS011;4044;49.814;7.828;2024-02-23T01:28:18;0.80;;;0.63;;
7997;SDS011;4044;49.814;7.828;2024-02-23T01:30:44;0.97;;;0.73;;
7997;SDS011;4044;49.814;7.828;2024-02-23T01:33:09;0.97;;;0.87;;
7997;SDS011;4044;49.814;7.828;2024-02-23T01:35:35;1.00;;;0.67;;
7997;SDS011;4044;49.814;7.828;2024-02-23T01:38:01;1.57;;;0.70;;
7997;SDS011;4044;49.814;7.828;2024-02-23T01:40:27;2.20;;;0.80;;
7997;SDS011;4044;49.814;7.828;2024-02-23T01:43:00;0.60;;;0.60;;
7997;SDS011;4044;49.814;7.828;2024-02-23T01:45:27;3.53;;;0.73;;
7997;SDS011;4044;49.814;7.828;2024-02-23T01:47:53;1.27;;;0.90;;
7997;SDS011;4044;49.814;7.828;2024-02-23T01:50:18;3.07;;;0.70;;
7997;SDS011;4044;49.814;7.828;2024-02-23T01:52:44;1.60;;;0.80;;
7997;SDS011;4044;49.814;7.828;2024-02-23T01:55:09;2.20;;;0.80;;
7997;SDS011;4044;49.814;7.828;2024-02-23T01:57:35;2.13;;;1.00;;
7997;SDS011;4044;49.814;7.828;2024-02-23T02:00:00;1.77;;;0.80;;
7997;SDS011;4044;49.814;7.828;2024-02-23T02:02:27;3.57;;;0.97;;
7997;SDS011;4044;49.814;7.828;2024-02-23T02:04:53;3.00;;;0.90;;
7997;SDS011;4044;49.814;7.828;2024-02-23T02:07:19;2.30;;;1.13;;
7997;SDS011;4044;49.814;7.828;2024-02-23T02:09:47;0.90;;;0.70;;
7997;SDS011;4044;49.814;7.828;2024-02-23T02:12:13;2.40;;;1.00;;
7997;SDS011;4044;49.814;7.828;2024-02-23T02:14:38;2.77;;;1.20;;
7997;SDS011;4044;49.814;7.828;2024-02-23T02:17:04;3.83;;;0.90;;
7997;SDS011;4044;49.814;7.828;2024-02-23T02:19:30;1.87;;;0.90;;
7997;SDS011;4044;49.814;7.828;2024-02-23T02:21:56;3.27;;;1.20;;
7997;SDS011;4044;49.814;7.828;2024-02-23T02:24:22;4.93;;;1.13;;
7997;SDS011;4044;49.814;7.828;2024-02-23T02:26:47;2.50;;;0.90;;
7997;SDS011;4044;49.814;7.828;2024-02-23T02:29:15;1.80;;;0.90;;
7997;SDS011;4044;49.814;7.828;2024-02-23T02:31:40;3.30;;;1.13;;
7997;SDS011;4044;49.814;7.828;2024-02-23T02:34:06;1.30;;;1.00;;
7997;SDS011;4044;49.814;7.828;2024-02-23T02:36:31;2.70;;;0.93;;
7997;SDS011;4044;49.814;7.828;2024-02-23T02:38:57;2.57;;;1.10;;
7997;SDS011;4044;49.814;7.828;2024-02-23T02:41:23;1.80;;;0.90;;
7997;SDS011;4044;49.814;7.828;2024-02-23T02:43:53;3.73;;;1.43;;
7997;SDS011;4044;49.814;7.828;2024-02-23T02:46:18;2.93;;;1.10;;
7997;SDS011;4044;49.814;7.828;2024-02-23T02:48:44;4.40;;;1.50;;
7997;SDS011;4044;49.814;7.828;2024-02-23T02:51:09;2.00;;;1.40;;
7997;SDS011;4044;49.814;7.828;2024-02-23T02:53:35;2.13;;;1.13;;
7997;SDS011;4044;49.814;7.828;2024-02-23T02:56:01;3.17;;;1.37;;
7997;SDS011;4044;49.814;7.828;2024-02-23T02:58:30;4.20;;;1.20;;
7997;SDS011;4044;49.814;7.828;2024-02-23T03:00:55;3.77;;;1.20;;
7997;SDS011;4044;49.814;7.828;2024-02-23T03:03:21;1.97;;;1.10;;
7997;SDS011;4044;49.814;7.828;2024-02-23T03:05:47;3.23;;;1.10;;
7997;SDS011;4044;49.814;7.828;2024-02-23T03:08:12;6.10;;;1.50;;
7997;SDS011;4044;49.814;7.828;2024-02-23T03:10:38;2.83;;;1.30;;
7997;SDS011;4044;49.814;7.828;2024-02-23T03:13:03;2.27;;;1.07;;
7997;SDS011;4044;49.814;7.828;2024-02-23T03:15:29;4.30;;;1.47;;
7997;SDS011;4044;49.814;7.828;2024-02-23T03:17:55;3.47;;;1.27;;
7997;SDS011;4044;49.814;7.828;2024-02-23T03:20:21;2.87;;;0.97;;
7997;SDS011;4044;49.814;7.828;2024-02-23T03:22:46;3.23;;;1.13;;
7997;SDS011;4044;49.814;7.828;2024-02-23T03:25:11;2.20;;;1.10;;
7997;SDS011;4044;49.814;7.828;2024-02-23T03:27:37;2.40;;;1.30;;
7997;SDS011;4044;49.814;7.828;2024-02-23T03:30:03;1.70;;;1.03;;
7997;SDS011;4044;49.814;7.828;2024-02-23T03:32:30;3.83;;;1.53;;
7997;SDS011;4044;49.814;7.828;2024-02-23T03:35:01;2.97;;;1.60;;
7997;SDS011;4044;49.814;7.828;2024-02-23T03:37:28;2.80;;;1.20;;
7997;SDS011;4044;49.814;7.828;2024-02-23T03:39:53;3.40;;;1.30;;
7997;SDS011;4044;49.814;7.828;2024-02-23T03:42:18;3.17;;;1.30;;
7997;SDS011;4044;49.814;7.828;2024-02-23T03:44:44;2.73;;;1.30;;
7997;SDS011;4044;49.814;7.828;2024-02-23T03:47:09;2.40;;;1.30;;
7997;SDS011;4044;49.814;7.828;2024-02-23T03:49:35;2.30;;;1.13;;
7997;SDS011;4044;49.814;7.828;2024-02-23T03:52:00;3.07;;;1.13;;
7997;SDS011;4044;49.814;7.828;2024-02-23T03:54:26;3.80;;;1.40;;
7997;SDS011;4044;49.814;7.828;2024-02-23T03:56:52;2.60;;;1.13;;
7997;SDS011;4044;49.814;7.828;2024-02-23T03:59:17;1.47;;;0.93;;
7997;SDS011;4044;49.814;7.828;2024-02-23T04:01:43;2.73;;;1.30;;
7997;SDS011;4044;49.814;7.828;2024-02-23T04:04:09;4.50;;;1.27;;
7997;SDS011;4044;49.814;7.828;2024-02-23T04:06:34;2.70;;;1.17;;
7997;SDS011;4044;49.814;7.828;2024-02-23T04:09:00;2.47;;;1.23;;
7997;SDS011;4044;49.814;7.828;2024-02-23T04:11:26;1.07;;;0.87;;
7997;SDS011;4044;49.814;7.828;2024-02-23T04:13:51;2.90;;;1.17;;
7997;SDS011;4044;49.814;7.828;2024-02-23T04:16:17;2.13;;;1.00;;
7997;SDS011;4044;49.814;7.828;2024-02-23T04:18:42;2.87;;;1.20;;
7997;SDS011;4044;49.814;7.828;2024-02-23T04:21:08;1.67;;;0.97;;
7997;SDS011;4044;49.814;7.828;2024-02-23T04:23:33;4.90;;;1.10;;
7997;SDS011;4044;49.814;7.828;2024-02-23T04:25:59;2.57;;;0.97;;
7997;SDS011;4044;49.814;7.828;2024-02-23T04:28:24;2.60;;;1.10;;
7997;SDS011;4044;49.814;7.828;2024-02-23T04:30:51;3.83;;;1.20;;
7997;SDS011;4044;49.814;7.828;2024-02-23T04:33:17;2.67;;;0.93;;
7997;SDS011;4044;49.814;7.828;2024-02-23T04:35:42;4.03;;;1.20;;
7997;SDS011;4044;49.814;7.828;2024-02-23T04:38:08;3.50;;;1.20;;
7997;SDS011;4044;49.814;7.828;2024-02-23T04:40:33;5.10;;;1.60;;
7997;SDS011;4044;49.814;7.828;2024-02-23T04:42:59;6.00;;;1.77;;
7997;SDS011;4044;49.814;7.828;2024-02-23T04:45:24;2.13;;;1.20;;
7997;SDS011;4044;49.814;7.828;2024-02-23T04:47:49;3.17;;;1.20;;
7997;SDS011;4044;49.814;7.828;2024-02-23T04:50:15;1.43;;;1.10;;
7997;SDS011;4044;49.814;7.828;2024-02-23T04:52:40;3.67;;;1.60;;
7997;SDS011;4044;49.814;7.828;2024-02-23T04:55:06;3.87;;;1.27;;
7997;SDS011;4044;49.814;7.828;2024-02-23T04:57:32;2.13;;;1.50;;
7997;SDS011;4044;49.814;7.828;2024-02-23T04:59:57;3.10;;;1.30;;
7997;SDS011;4044;49.814;7.828;2024-02-23T05:02:23;3.97;;;1.43;;
7997;SDS011;4044;49.814;7.828;2024-02-23T05:04:53;3.10;;;1.80;;
7997;SDS011;4044;49.814;7.828;2024-02-23T05:07:19;3.03;;;1.33;;
7997;SDS011;4044;49.814;7.828;2024-02-23T05:09:44;3.40;;;1.30;;
7997;SDS011;4044;49.814;7.828;2024-02-23T05:12:09;4.90;;;1.67;;
7997;SDS011;4044;49.814;7.828;2024-02-23T05:14:35;3.63;;;1.50;;
7997;SDS011;4044;49.814;7.828;2024-02-23T05:17:01;3.57;;;1.50;;
7997;SDS011;4044;49.814;7.828;2024-02-23T05:19:26;6.77;;;1.50;;
7997;SDS011;4044;49.814;7.828;2024-02-23T05:21:52;3.07;;;1.30;;
7997;SDS011;4044;49.814;7.828;2024-02-23T05:24:17;1.57;;;1.43;;
7997;SDS011;4044;49.814;7.828;2024-02-23T05:26:42;3.43;;;1.87;;
7997;SDS011;4044;49.814;7.828;2024-02-23T05:29:09;2.77;;;1.63;;
7997;SDS011;4044;49.814;7.828;2024-02-23T05:31:48;5.13;;;1.60;;
7997;SDS011;4044;49.814;7.828;2024-02-23T05:34:14;4.30;;;1.73;;
7997;SDS011;4044;49.814;7.828;2024-02-23T05:36:40;5.37;;;1.83;;
7997;SDS011;4044;49.814;7.828;2024-02-23T05:39:07;2.70;;;1.70;;
7997;SDS011;4044;49.814;7.828;2024-02-23T05:41:34;4.87;;;2.00;;
7997;SDS011;4044;49.814;7.828;2024-02-23T05:44:01;5.93;;;2.07;;
7997;SDS011;4044;49.814;7.828;2024-02-23T05:46:30;2.17;;;1.90;;
7997;SDS011;4044;49.814;7.828;2024-02-23T05:48:56;4.37;;;1.80;;
7997;SDS011;4044;49.814;7.828;2024-02-23T05:51:22;3.20;;;1.80;;
7997;SDS011;4044;49.814;7.828;2024-02-23T05:53:48;3.30;;;1.80;;
7997;SDS011;4044;49.814;7.828;2024-02-23T05:56:13;3.53;;;2.13;;
7997;SDS011;4044;49.814;7.828;2024-02-23T05:58:39;4.77;;;1.83;;
7997;SDS011;4044;49.814;7.828;2024-02-23T06:01:04;4.20;;;1.97;;
7997;SDS011;4044;49.814;7.828;2024-02-23T06:03:30;2.10;;;1.53;;
7997;SDS011;4044;49.814;7.828;2024-02-23T06:05:55;3.93;;;1.70;;
7997;SDS011;4044;49.814;7.828;2024-02-23T06:08:21;4.33;;;1.60;;
7997;SDS011;4044;49.814;7.828;2024-02-23T06:10:46;2.47;;;1.43;;
7997;SDS011;4044;49.814;7.828;2024-02-23T06:13:12;2.07;;;1.40;;
7997;SDS011;4044;49.814;7.828;2024-02-23T06:15:38;3.83;;;1.50;;
7997;SDS011;4044;49.814;7.828;2024-02-23T06:18:04;4.43;;;1.67;;
7997;SDS011;4044;49.814;7.828;2024-02-23T06:20:29;4.23;;;1.40;;
7997;SDS011;4044;49.814;7.828;2024-02-23T06:22:55;3.77;;;1.63;;
7997;SDS011;4044;49.814;7.828;2024-02-23T06:25:21;4.20;;;1.67;;
7997;SDS011;4044;49.814;7.828;2024-02-23T06:27:46;4.83;;;1.50;;
7997;SDS011;4044;49.814;7.828;2024-02-23T06:30:12;3.37;;;1.30;;
7997;SDS011;4044;49.814;7.828;2024-02-23T06:32:37;2.27;;;1.20;;
7997;SDS011;4044;49.814;7.828;2024-02-23T06:35:03;4.83;;;1.60;;
7997;SDS011;4044;49.814;7.828;2024-02-23T06:37:31;4.47;;;1.27;;
7997;SDS011;4044;49.814;7.828;2024-02-23T06:39:57;4.10;;;1.40;;
7997;SDS011;4044;49.814;7.828;2024-02-23T06:42:23;6.27;;;1.83;;
7997;SDS011;4044;49.814;7.828;2024-02-23T06:44:49;3.07;;;1.30;;
7997;SDS011;4044;49.814;7.828;2024-02-23T06:47:14;2.70;;;1.33;;
7997;SDS011;4044;49.814;7.828;2024-02-23T06:49:43;2.33;;;1.53;;
7997;SDS011;4044;49.814;7.828;2024-02-23T06:52:09;3.40;;;1.40;;
7997;SDS011;4044;49.814;7.828;2024-02-23T06:54:35;3.63;;;1.10;;
7997;SDS011;4044;49.814;7.828;2024-02-23T06:57:00;3.93;;;1.30;;
7997;SDS011;4044;49.814;7.828;2024-02-23T06:59:26;2.73;;;1.10;;
7997;SDS011;4044;49.814;7.828;2024-02-23T07:01:52;3.23;;;1.27;;
7997;SDS011;4044;49.814;7.828;2024-02-23T07:04:18;4.63;;;1.77;;
7997;SDS011;4044;49.814;7.828;2024-02-23T07:06:44;13.00;;;1.73;;
7997;SDS011;4044;49.814;7.828;2024-02-23T07:09:10;4.03;;;1.40;;
7997;SDS011;4044;49.814;7.828;2024-02-23T07:11:36;2.00;;;1.20;;
7997;SDS011;4044;49.814;7.828;2024-02-23T07:14:03;4.50;;;1.40;;
7997;SDS011;4044;49.814;7.828;2024-02-23T07:16:28;2.83;;;1.50;;
7997;SDS011;4044;49.814;7.828;2024-02-23T07:18:54;3.77;;;1.27;;
7997;SDS011;4044;49.814;7.828;2024-02-23T07:21:20;2.77;;;1.20;;
7997;SDS011;4044;49.814;7.828;2024-02-23T07:23:46;3.30;;;1.30;;
7997;SDS011;4044;49.814;7.828;2024-02-23T07:26:11;4.20;;;1.23;;
7997;SDS011;4044;49.814;7.828;2024-02-23T07:28:37;3.47;;;1.43;;
7997;SDS011;4044;49.814;7.828;2024-02-23T07:31:02;5.43;;;1.90;;
7997;SDS011;4044;49.814;7.828;2024-02-23T07:33:28;1.90;;;1.50;;
7997;SDS011;4044;49.814;7.828;2024-02-23T07:35:53;6.73;;;1.50;;
7997;SDS011;4044;49.814;7.828;2024-02-23T07:38:19;3.13;;;1.50;;
7997;SDS011;4044;49.814;7.828;2024-02-23T07:40:44;5.30;;;1.47;;
7997;SDS011;4044;49.814;7.828;2024-02-23T07:43:10;4.13;;;1.40;;
7997;SDS011;4044;49.814;7.828;2024-02-23T07:45:36;7.93;;;1.80;;
7997;SDS011;4044;49.814;7.828;2024-02-23T07:48:02;6.93;;;1.67;;
7997;SDS011;4044;49.814;7.828;2024-02-23T07:50:28;3.50;;;1.67;;
7997;SDS011;4044;49.814;7.828;2024-02-23T07:52:53;5.17;;;1.63;;
7997;SDS011;4044;49.814;7.828;2024-02-23T07:55:19;6.10;;;1.60;;
7997;SDS011;4044;49.814;7.828;2024-02-23T07:57:44;5.67;;;1.33;;
7997;SDS011;4044;49.814;7.828;2024-02-23T08:00:10;3.30;;;1.40;;
7997;SDS011;4044;49.814;7.828;2024-02-23T08:02:36;5.83;;;1.63;;
7997;SDS011;4044;49.814;7.828;2024-02-23T08:05:02;6.57;;;1.60;;
7997;SDS011;4044;49.814;7.828;2024-02-23T08:07:28;3.30;;;1.27;;
7997;SDS011;4044;49.814;7.828;2024-02-23T08:09:56;5.27;;;2.20;;
7997;SDS011;4044;49.814;7.828;2024-02-23T08:12:22;6.30;;;1.63;;
7997;SDS011;4044;49.814;7.828;2024-02-23T08:14:48;5.37;;;1.53;;
7997;SDS011;4044;49.814;7.828;2024-02-23T08:17:15;5.40;;;1.80;;
7997;SDS011;4044;49.814;7.828;2024-02-23T08:19:41;2.97;;;1.40;;
7997;SDS011;4044;49.814;7.828;2024-02-23T08:22:06;2.93;;;1.13;;
7997;SDS011;4044;49.814;7.828;2024-02-23T08:24:32;5.77;;;1.80;;
7997;SDS011;4044;49.814;7.828;2024-02-23T08:26:57;4.40;;;1.50;;
7997;SDS011;4044;49.814;7.828;2024-02-23T08:29:23;5.33;;;1.60;;
7997;SDS011;4044;49.814;7.828;2024-02-23T08:31:49;6.10;;;1.87;;
7997;SDS011;4044;49.814;7.828;2024-02-23T08:34:14;4.40;;;1.20;;
7997;SDS011;4044;49.814;7.828;2024-02-23T08:36:40;4.63;;;1.60;;
7997;SDS011;4044;49.814;7.828;2024-02-23T08:39:05;5.87;;;1.90;;
7997;SDS011;4044;49.814;7.828;2024-02-23T08:41:30;5.40;;;1.60;;
7997;SDS011;4044;49.814;7.828;2024-02-23T08:43:56;4.20;;;1.57;;
7997;SDS011;4044;49.814;7.828;2024-02-23T08:46:21;3.67;;;1.67;;
7997;SDS011;4044;49.814;7.828;2024-02-23T08:48:47;3.33;;;1.63;;
7997;SDS011;4044;49.814;7.828;2024-02-23T08:51:13;4.20;;;1.37;;
7997;SDS011;4044;49.814;7.828;2024-02-23T08:53:38;8.93;;;1.53;;
7997;SDS011;4044;49.814;7.828;2024-02-23T08:56:06;6.87;;;1.47;;
7997;SDS011;4044;49.814;7.828;2024-02-23T08:58:32;3.00;;;1.17;;
7997;SDS011;4044;49.814;7.828;2024-02-23T09:00:57;3.23;;;1.30;;
7997;SDS011;4044;49.814;7.828;2024-02-23T09:03:23;5.27;;;1.50;;
7997;SDS011;4044;49.814;7.828;2024-02-23T09:05:49;2.83;;;1.30;;
7997;SDS011;4044;49.814;7.828;2024-02-23T09:08:15;5.47;;;1.53;;
7997;SDS011;4044;49.814;7.828;2024-02-23T09:10:40;4.03;;;1.30;;
7997;SDS011;4044;49.814;7.828;2024-02-23T09:13:06;4.63;;;1.50;;
7997;SDS011;4044;49.814;7.828;2024-02-23T09:15:31;7.57;;;1.57;;
7997;SDS011;4044;49.814;7.828;2024-02-23T09:17:57;3.20;;;1.50;;
7997;SDS011;4044;49.814;7.828;2024-02-23T09:20:22;5.17;;;1.50;;
7997;SDS011;4044;49.814;7.828;2024-02-23T09:22:48;3.57;;;1.50;;
7997;SDS011;4044;49.814;7.828;2024-02-23T09:25:14;5.53;;;1.50;;
7997;SDS011;4044;49.814;7.828;2024-02-23T09:27:40;1.73;;;1.20;;
7997;SDS011;4044;49.814;7.828;2024-02-23T09:30:09;4.40;;;1.60;;
7997;SDS011;4044;49.814;7.828;2024-02-23T09:32:38;2.87;;;1.50;;
7997;SDS011;4044;49.814;7.828;2024-02-23T09:35:04;3.00;;;1.20;;
7997;SDS011;4044;49.814;7.828;2024-02-23T09:37:31;3.03;;;1.20;;
7997;SDS011;4044;49.814;7.828;2024-02-23T09:39:57;3.70;;;1.30;;
7997;SDS011;4044;49.814;7.828;2024-02-23T09:42:23;4.67;;;1.50;;
7997;SDS011;4044;49.814;7.828;2024-02-23T09:44:57;2.70;;;1.50;;
7997;SDS011;4044;49.814;7.828;2024-02-23T09:47:25;3.00;;;1.17;;
7997;SDS011;4044;49.814;7.828;2024-02-23T09:49:52;5.33;;;1.37;;
7997;SDS011;4044;49.814;7.828;2024-02-23T09:52:18;5.73;;;1.40;;
7997;SDS011;4044;49.814;7.828;2024-02-23T09:54:45;3.50;;;1.20;;
7997;SDS011;4044;49.814;7.828;2024-02-23T09:57:10;5.83;;;1.30;;
7997;SDS011;4044;49.814;7.828;2024-02-23T09:59:36;2.47;;;1.30;;
7997;SDS011;4044;49.814;7.828;2024-02-23T10:02:08;5.20;;;1.40;;
7997;SDS011;4044;49.814;7.828;2024-02-23T10:04:40;3.83;;;1.50;;
7997;SDS011;4044;49.814;7.828;2024-02-23T10:07:08;6.53;;;1.63;;
7997;SDS011;4044;49.814;7.828;2024-02-23T10:09:34;4.73;;;1.27;;
7997;SDS011;4044;49.814;7.828;2024-02-23T10:12:00;4.87;;;1.50;;
7997;SDS011;4044;49.814;7.828;2024-02-23T10:14:29;4.60;;;1.67;;
7997;SDS011;4044;49.814;7.828;2024-02-23T10:16:54;4.00;;;1.37;;
7997;SDS011;4044;49.814;7.828;2024-02-23T10:19:20;4.60;;;1.50;;
7997;SDS011;4044;49.814;7.828;2024-02-23T10:21:46;4.57;;;1.37;;
7997;SDS011;4044;49.814;7.828;2024-02-23T10:24:12;4.67;;;1.50;;
7997;SDS011;4044;49.814;7.828;2024-02-23T10:26:41;4.77;;;1.27;;
7997;SDS011;4044;49.814;7.828;2024-02-23T10:29:06;4.57;;;1.20;;
7997;SDS011;4044;49.814;7.828;2024-02-23T10:31:34;4.17;;;1.33;;
7997;SDS011;4044;49.814;7.828;2024-02-23T10:34:08;3.53;;;1.10;;
7997;SDS011;4044;49.814;7.828;2024-02-23T10:36:37;2.20;;;1.10;;
7997;SDS011;4044;49.814;7.828;2024-02-23T10:39:07;4.60;;;1.43;;
7997;SDS011;4044;49.814;7.828;2024-02-23T10:41:35;1.63;;;1.10;;
7997;SDS011;4044;49.814;7.828;2024-02-23T10:44:02;2.47;;;1.20;;
7997;SDS011;4044;49.814;7.828;2024-02-23T10:46:29;2.97;;;1.27;;
7997;SDS011;4044;49.814;7.828;2024-02-23T10:48:56;3.80;;;1.10;;
7997;SDS011;4044;49.814;7.828;2024-02-23T10:51:24;6.17;;;1.63;;
7997;SDS011;4044;49.814;7.828;2024-02-23T10:53:50;4.73;;;1.53;;
7997;SDS011;4044;49.814;7.828;2024-02-23T10:56:17;3.13;;;1.27;;
7997;SDS011;4044;49.814;7.828;2024-02-23T10:58:43;5.07;;;1.50;;
7997;SDS011;4044;49.814;7.828;2024-02-23T11:01:08;3.47;;;1.20;;
7997;SDS011;4044;49.814;7.828;2024-02-23T11:03:35;1.50;;;1.07;;
7997;SDS011;4044;49.814;7.828;2024-02-23T11:06:05;1.17;;;0.80;;
7997;SDS011;4044;49.814;7.828;2024-02-23T11:08:32;2.73;;;1.10;;
7997;SDS011;4044;49.814;7.828;2024-02-23T11:11:06;2.00;;;0.90;;
7997;SDS011;4044;49.814;7.828;2024-02-23T11:13:36;2.63;;;1.10;;
7997;SDS011;4044;49.814;7.828;2024-02-23T11:16:03;1.73;;;0.87;;
7997;SDS011;4044;49.814;7.828;2024-02-23T11:18:29;1.60;;;0.90;;
7997;SDS011;4044;49.814;7.828;2024-02-23T11:20:58;0.97;;;0.90;;
7997;SDS011;4044;49.814;7.828;2024-02-23T11:23:25;4.87;;;1.20;;
7997;SDS011;4044;49.814;7.828;2024-02-23T11:28:28;4.07;;;1.50;;
7997;SDS011;4044;49.814;7.828;2024-02-23T11:30:53;3.73;;;1.27;;
7997;SDS011;4044;49.814;7.828;2024-02-23T11:33:26;2.73;;;1.00;;
7997;SDS011;4044;49.814;7.828;2024-02-23T11:35:52;1.47;;;1.20;;
7997;SDS011;4044;49.814;7.828;2024-02-23T11:38:17;2.10;;;1.07;;
7997;SDS011;4044;49.814;7.828;2024-02-23T11:40:45;2.27;;;1.00;;
7997;SDS011;4044;49.814;7.828;2024-02-23T11:43:12;3.47;;;1.40;;
7997;SDS011;4044;49.814;7.828;2024-02-23T11:45:39;3.77;;;1.20;;
7997;SDS011;4044;49.814;7.828;2024-02-23T11:48:06;2.17;;;1.00;;
7997;SDS011;4044;49.814;7.828;2024-02-23T11:50:32;2.77;;;1.20;;
7997;SDS011;4044;49.814;7.828;2024-02-23T11:52:57;3.07;;;1.23;;
7997;SDS011;4044;49.814;7.828;2024-02-23T11:55:24;2.93;;;0.80;;
7997;SDS011;4044;49.814;7.828;2024-02-23T11:57:51;4.23;;;1.30;;
7997;SDS011;4044;49.814;7.828;2024-02-23T12:00:16;2.17;;;1.17;;
7997;SDS011;4044;49.814;7.828;2024-02-23T12:02:45;3.27;;;1.10;;
7997;SDS011;4044;49.814;7.828;2024-02-23T12:05:15;2.13;;;1.13;;
7997;SDS011;4044;49.814;7.828;2024-02-23T12:07:41;4.47;;;1.40;;
7997;SDS011;4044;49.814;7.828;2024-02-23T12:10:07;2.33;;;1.20;;
7997;SDS011;4044;49.814;7.828;2024-02-23T12:12:33;3.60;;;1.20;;
7997;SDS011;4044;49.814;7.828;2024-02-23T12:14:59;3.83;;;1.73;;
7997;SDS011;4044;49.814;7.828;2024-02-23T12:17:24;3.27;;;1.03;;
7997;SDS011;4044;49.814;7.828;2024-02-23T12:20:00;1.57;;;1.10;;
7997;SDS011;4044;49.814;7.828;2024-02-23T12:22:26;4.93;;;1.20;;
7997;SDS011;4044;49.814;7.828;2024-02-23T12:24:52;3.03;;;1.60;;
7997;SDS011;4044;49.814;7.828;2024-02-23T12:27:18;2.47;;;1.10;;
7997;SDS011;4044;49.814;7.828;2024-02-23T12:29:51;6.53;;;1.57;;
7997;SDS011;4044;49.814;7.828;2024-02-23T12:32:19;1.77;;;1.17;;
7997;SDS011;4044;49.814;7.828;2024-02-23T12:34:45;4.33;;;1.20;;
7997;SDS011;4044;49.814;7.828;2024-02-23T12:37:15;3.17;;;1.50;;
7997;SDS011;4044;49.814;7.828;2024-02-23T12:39:42;4.07;;;1.23;;
7997;SDS011;4044;49.814;7.828;2024-02-23T12:42:08;3.37;;;1.13;;
7997;SDS011;4044;49.814;7.828;2024-02-23T12:44:33;1.37;;;1.03;;
7997;SDS011;4044;49.814;7.828;2024-02-23T12:46:59;3.90;;;1.20;;
7997;SDS011;4044;49.814;7.828;2024-02-23T12:49:24;2.10;;;1.20;;
7997;SDS011;4044;49.814;7.828;2024-02-23T12:51:50;1.92;;;1.02;;
7997;SDS011;4044;49.814;7.828;2024-02-23T12:54:15;3.83;;;1.25;;
7997;SDS011;4044;49.814;7.828;2024-02-23T12:56:41;3.85;;;1.35;;
7997;SDS011;4044;49.814;7.828;2024-02-23T12:59:07;3.88;;;1.30;;
7997;SDS011;4044;49.814;7.828;2024-02-23T13:01:34;1.85;;;1.40;;
7997;SDS011;4044;49.814;7.828;2024-02-23T13:04:04;4.15;;;1.50;;
7997;SDS011;4044;49.814;7.828;2024-02-23T13:06:38;3.78;;;1.48;;
7997;SDS011;4044;49.814;7.828;2024-02-23T13:09:04;3.08;;;1.42;;
7997;SDS011;4044;49.814;7.828;2024-02-23T13:11:33;2.00;;;1.27;;
7997;SDS011;4044;49.814;7.828;2024-02-23T13:14:03;2.83;;;1.30;;
7997;SDS011;4044;49.814;7.828;2024-02-23T13:16:28;3.77;;;1.50;;
7997;SDS011;4044;49.814;7.828;2024-02-23T13:18:54;3.17;;;1.93;;
7997;SDS011;4044;49.814;7.828;2024-02-23T13:21:20;4.37;;;1.37;;
7997;SDS011;4044;49.814;7.828;2024-02-23T13:23:45;2.57;;;1.23;;
7997;SDS011;4044;49.814;7.828;2024-02-23T13:26:11;2.20;;;1.30;;
7997;SDS011;4044;49.814;7.828;2024-02-23T13:28:39;2.37;;;1.37;;
7997;SDS011;4044;49.814;7.828;2024-02-23T13:31:06;3.10;;;1.40;;
7997;SDS011;4044;49.814;7.828;2024-02-23T13:33:32;4.03;;;1.20;;
7997;SDS011;4044;49.814;7.828;2024-02-23T13:35:57;4.87;;;1.63;;
7997;SDS011;4044;49.814;7.828;2024-02-23T13:38:23;2.73;;;1.67;;
7997;SDS011;4044;49.814;7.828;2024-02-23T13:40:49;2.37;;;1.70;;
7997;SDS011;4044;49.814;7.828;2024-02-23T13:43:15;3.47;;;1.50;;
7997;SDS011;4044;49.814;7.828;2024-02-23T13:45:50;2.37;;;1.60;;
7997;SDS011;4044;49.814;7.828;2024-02-23T13:48:17;4.67;;;1.80;;
7997;SDS011;4044;49.814;7.828;2024-02-23T13:50:43;1.90;;;1.10;;
7997;SDS011;4044;49.814;7.828;2024-02-23T13:53:10;2.70;;;1.27;;
7997;SDS011;4044;49.814;7.828;2024-02-23T13:55:37;4.00;;;1.40;;
7997;SDS011;4044;49.814;7.828;2024-02-23T13:58:03;1.83;;;1.20;;
7997;SDS011;4044;49.814;7.828;2024-02-23T14:00:28;2.97;;;1.17;;
7997;SDS011;4044;49.814;7.828;2024-02-23T14:02:54;2.60;;;1.53;;
7997;SDS011;4044;49.814;7.828;2024-02-23T14:05:19;2.60;;;1.30;;
7997;SDS011;4044;49.814;7.828;2024-02-23T14:07:46;2.37;;;1.40;;
7997;SDS011;4044;49.814;7.828;2024-02-23T14:10:12;2.37;;;1.40;;
7997;SDS011;4044;49.814;7.828;2024-02-23T14:12:38;1.63;;;1.00;;
7997;SDS011;4044;49.814;7.828;2024-02-23T14:15:05;2.92;;;1.25;;
7997;SDS011;4044;49.814;7.828;2024-02-23T14:17:31;1.73;;;1.30;;
7997;SDS011;4044;49.814;7.828;2024-02-23T14:19:57;2.45;;;1.10;;
7997;SDS011;4044;49.814;7.828;2024-02-23T14:22:23;1.75;;;1.20;;
7997;SDS011;4044;49.814;7.828;2024-02-23T14:24:48;1.65;;;1.10;;
7997;SDS011;4044;49.814;7.828;2024-02-23T14:27:14;2.00;;;1.60;;
7997;SDS011;4044;49.814;7.828;2024-02-23T14:29:39;2.67;;;1.23;;
7997;SDS011;4044;49.814;7.828;2024-02-23T14:32:05;1.75;;;1.30;;
7997;SDS011;4044;49.814;7.828;2024-02-23T14:34:30;1.25;;;1.08;;
7997;SDS011;4044;49.814;7.828;2024-02-23T14:36:58;1.73;;;1.25;;
7997;SDS011;4044;49.814;7.828;2024-02-23T14:39:24;2.90;;;1.10;;
7997;SDS011;4044;49.814;7.828;2024-02-23T14:41:49;2.83;;;1.38;;
7997;SDS011;4044;49.814;7.828;2024-02-23T14:44:15;2.00;;;1.10;;
7997;SDS011;4044;49.814;7.828;2024-02-23T14:46:40;2.30;;;1.20;;
7997;SDS011;4044;49.814;7.828;2024-02-23T14:49:06;1.30;;;1.20;;
7997;SDS011;4044;49.814;7.828;2024-02-23T14:51:32;1.48;;;1.08;;
7997;SDS011;4044;49.814;7.828;2024-02-23T14:53:59;2.67;;;1.38;;
7997;SDS011;4044;49.814;7.828;2024-02-23T14:56:27;2.55;;;1.20;;
7997;SDS011;4044;49.814;7.828;2024-02-23T14:58:52;1.73;;;1.33;;
7997;SDS011;4044;49.814;7.828;2024-02-23T15:01:18;2.50;;;1.10;;
7997;SDS011;4044;49.814;7.828;2024-02-23T15:03:43;2.08;;;1.08;;
7997;SDS011;4044;49.814;7.828;2024-02-23T15:06:09;3.42;;;1.27;;
7997;SDS011;4044;49.814;7.828;2024-02-23T15:08:35;2.58;;;1.10;;
7997;SDS011;4044;49.814;7.828;2024-02-23T15:11:01;3.17;;;1.45;;